Time;durP1;ratioP1;P1;durP2;ratioP2;P2;SDS_P1;SDS_P2;PMS_P1;PMS_P2;Temp;Humidity;BMP_temperature;BMP_pressure;BME280_temperature;BME280_humidity;BME280_pressure;Samples;Min_cycle;Max_cycle;Signal;HPM_P1;HPM_P2
2021/11/03 00:02:11;;;;;;;84.75;41.30;;;6.40;99.90;;;;;;5092788;28;20415;-71
2021/11/03 00:04:41;;;;;;;84.45;40.22;;;6.50;99.90;;;;;;5092720;28;20024;-70
2021/11/03 00:07:09;;;;;;;83.07;41.28;;;6.50;99.90;;;;;;5092790;28;20020;-70
2021/11/03 00:09:35;;;;;;;82.07;42.20;;;6.40;99.90;;;;;;5092411;28;20032;-71
2021/11/03 00:12:01;;;;;;;77.35;38.42;;;6.40;99.90;;;;;;5092352;28;20044;-71
2021/11/03 00:14:26;;;;;;;90.10;42.97;;;6.40;99.90;;;;;;5091262;28;20031;-70
2021/11/03 00:16:52;;;;;;;81.53;39.63;;;6.40;99.90;;;;;;5092716;28;20020;-70
2021/11/03 00:19:18;;;;;;;81.53;39.30;;;6.40;99.90;;;;;;5091295;28;20044;-70
2021/11/03 00:21:43;;;;;;;75.18;40.00;;;6.40;99.90;;;;;;5092616;28;20024;-71
2021/11/03 00:24:09;;;;;;;89.75;40.63;;;6.40;99.90;;;;;;5092235;28;20028;-70
2021/11/03 00:26:34;;;;;;;86.43;42.03;;;6.40;99.90;;;;;;5091213;28;20027;-70
2021/11/03 00:29:00;;;;;;;85.32;38.47;;;6.40;99.90;;;;;;5092440;28;20020;-70
2021/11/03 00:31:26;;;;;;;83.82;38.72;;;6.40;99.90;;;;;;5092205;28;20023;-72
2021/11/03 00:33:51;;;;;;;85.85;39.80;;;6.30;99.90;;;;;;5092061;28;20044;-71
2021/11/03 00:36:17;;;;;;;94.05;40.75;;;6.30;99.90;;;;;;5092314;28;20478;-71
2021/11/03 00:38:43;;;;;;;97.93;44.50;;;6.20;99.90;;;;;;5092411;28;20036;-71
2021/11/03 00:41:09;;;;;;;87.05;39.08;;;6.20;99.90;;;;;;5092526;28;20027;-71
2021/11/03 00:43:35;;;;;;;85.85;41.55;;;6.20;99.90;;;;;;5092328;28;20026;-71
2021/11/03 00:46:01;;;;;;;86.00;38.80;;;6.20;99.90;;;;;;5092297;28;20017;-70
2021/11/03 00:48:27;;;;;;;93.43;39.40;;;6.10;99.90;;;;;;5092879;28;20035;-70
2021/11/03 00:50:53;;;;;;;86.40;39.90;;;6.10;99.90;;;;;;5095944;28;20067;-70
2021/11/03 00:53:19;;;;;;;82.30;42.05;;;6.00;99.90;;;;;;5095893;28;20036;-71
2021/11/03 00:55:45;;;;;;;87.70;39.05;;;6.10;99.90;;;;;;5091960;28;20466;-70
2021/11/03 00:58:11;;;;;;;79.85;37.45;;;6.00;99.90;;;;;;5086366;28;20027;-70
2021/11/03 01:00:37;;;;;;;87.13;37.40;;;6.00;99.90;;;;;;5076128;28;20606;-70
2021/11/03 01:03:04;;;;;;;79.65;36.92;;;6.00;99.90;;;;;;5075580;28;20020;-71
2021/11/03 01:05:31;;;;;;;68.18;32.90;;;5.90;99.90;;;;;;5075307;28;20058;-70
2021/11/03 01:07:56;;;;;;;75.30;35.70;;;5.90;99.90;;;;;;5080199;28;20542;-70
2021/11/03 01:10:24;;;;;;;73.35;34.83;;;5.90;99.90;;;;;;5095474;28;20120;-70
2021/11/03 01:12:52;;;;;;;70.82;33.72;;;5.90;99.90;;;;;;5095490;28;20040;-70
2021/11/03 01:15:21;;;;;;;68.70;33.83;;;5.90;99.90;;;;;;5095726;28;20039;-70
2021/11/03 01:17:46;;;;;;;68.38;33.22;;;5.90;99.90;;;;;;5087092;28;20032;-70
2021/11/03 01:20:13;;;;;;;69.30;34.22;;;5.80;99.90;;;;;;5094031;28;20389;-70
2021/11/03 01:22:39;;;;;;;62.13;31.42;;;5.80;99.90;;;;;;5095360;28;20047;-70
2021/11/03 01:25:08;;;;;;;69.38;34.67;;;5.80;99.90;;;;;;5095323;28;20414;-70
2021/11/03 01:27:34;;;;;;;64.88;31.90;;;5.80;99.90;;;;;;5094984;28;20386;-70
2021/11/03 01:30:00;;;;;;;67.50;32.00;;;5.90;99.90;;;;;;5095234;28;20081;-70
2021/11/03 01:32:25;;;;;;;65.80;35.92;;;5.90;99.90;;;;;;5095030;28;20040;-70
2021/11/03 01:34:51;;;;;;;74.78;34.17;;;5.90;99.90;;;;;;5093780;28;20367;-70
2021/11/03 01:37:17;;;;;;;72.25;33.28;;;5.80;99.90;;;;;;5093751;28;20067;-71
2021/11/03 01:39:42;;;;;;;63.33;30.45;;;5.80;99.90;;;;;;5094875;28;20099;-70
2021/11/03 01:42:08;;;;;;;66.00;33.05;;;5.80;99.90;;;;;;5095091;28;20024;-72
2021/11/03 01:44:34;;;;;;;65.68;34.88;;;5.80;99.90;;;;;;5094505;28;20021;-71
2021/11/03 01:47:34;;;;;;;66.88;32.38;;;5.80;99.90;;;;;;5094885;28;20028;-71
2021/11/03 01:50:00;;;;;;;70.55;33.08;;;5.80;99.90;;;;;;5094840;28;20111;-70
2021/11/03 01:52:26;;;;;;;62.83;30.17;;;5.80;99.90;;;;;;5093402;28;20452;-70
2021/11/03 01:54:55;;;;;;;65.93;33.00;;;5.80;99.90;;;;;;5094728;28;20030;-70
2021/11/03 01:57:24;;;;;;;68.10;30.92;;;5.80;99.90;;;;;;5094714;28;20457;-70
2021/11/03 01:59:56;;;;;;;64.82;30.30;;;5.80;99.90;;;;;;5093902;28;20077;-70
2021/11/03 02:02:23;;;;;;;64.03;31.23;;;5.80;99.90;;;;;;5094614;28;20027;-70
2021/11/03 02:04:49;;;;;;;64.53;32.85;;;5.80;99.90;;;;;;5094299;28;20445;-70
2021/11/03 02:07:18;;;;;;;66.03;31.60;;;5.80;99.90;;;;;;5092622;28;20106;-71
2021/11/03 02:09:44;;;;;;;66.32;31.77;;;5.80;99.90;;;;;;5094231;28;20385;-70
2021/11/03 02:12:18;;;;;;;64.43;29.52;;;5.70;99.90;;;;;;5094483;28;20081;-71
2021/11/03 02:14:45;;;;;;;72.85;34.60;;;5.70;99.90;;;;;;5094319;28;20024;-70
2021/11/03 02:17:11;;;;;;;65.88;31.70;;;5.70;99.90;;;;;;5093997;28;20032;-71
2021/11/03 02:19:36;;;;;;;62.92;31.55;;;5.70;99.90;;;;;;5092983;28;20397;-70
2021/11/03 02:22:20;;;;;;;67.30;33.28;;;5.70;99.90;;;;;;5092992;28;20106;-72
2021/11/03 02:24:51;;;;;;;65.05;32.45;;;5.70;99.90;;;;;;5092607;28;20492;-70
2021/11/03 02:27:17;;;;;;;64.28;31.65;;;5.70;99.90;;;;;;5094160;28;20486;-70
2021/11/03 02:29:43;;;;;;;61.50;31.23;;;5.70;99.90;;;;;;5094030;28;20020;-70
2021/11/03 02:32:41;;;;;;;69.63;34.28;;;5.70;99.90;;;;;;5094035;28;20047;-70
2021/11/03 02:35:06;;;;;;;70.78;33.22;;;5.70;99.90;;;;;;5084376;28;20100;-69
2021/11/03 02:37:32;;;;;;;74.82;34.97;;;5.70;99.90;;;;;;5093922;28;20028;-70
2021/11/03 02:40:17;;;;;;;73.30;34.58;;;5.70;99.90;;;;;;5093844;28;20032;-70
2021/11/03 02:42:46;;;;;;;69.38;32.03;;;5.70;99.90;;;;;;5092955;28;20092;-70
2021/11/03 02:45:24;;;;;;;76.78;35.97;;;5.70;99.90;;;;;;5093787;28;20386;-70
2021/11/03 02:47:50;;;;;;;74.82;34.85;;;5.70;99.90;;;;;;5093838;28;20051;-70
2021/11/03 02:50:16;;;;;;;76.10;34.47;;;5.70;99.90;;;;;;5093669;28;20462;-70
2021/11/03 02:52:42;;;;;;;65.30;31.75;;;5.70;99.90;;;;;;5092296;28;20060;-71
2021/11/03 02:55:10;;;;;;;71.57;34.88;;;5.70;99.90;;;;;;5093382;28;20140;-70
2021/11/03 02:57:36;;;;;;;75.63;34.80;;;5.70;99.90;;;;;;5093498;28;20030;-70
2021/11/03 03:00:14;;;;;;;84.70;37.65;;;5.70;99.90;;;;;;5093207;28;20020;-70
2021/11/03 03:02:40;;;;;;;73.88;34.63;;;5.80;99.90;;;;;;5080378;28;20081;-70
2021/11/03 03:05:07;;;;;;;70.72;33.13;;;5.70;99.90;;;;;;5083224;28;20032;-69
2021/11/03 03:07:32;;;;;;;74.78;36.30;;;5.80;99.90;;;;;;5073141;28;20017;-70
2021/11/03 03:09:59;;;;;;;71.63;34.72;;;5.70;99.90;;;;;;5073018;28;20042;-70
2021/11/03 03:12:27;;;;;;;73.13;36.42;;;5.80;99.90;;;;;;5078165;28;20085;-71
2021/11/03 03:14:54;;;;;;;80.70;36.60;;;5.80;99.90;;;;;;5093337;28;20024;-70
2021/11/03 03:17:20;;;;;;;75.38;34.85;;;5.80;99.90;;;;;;5093219;28;20358;-71
2021/11/03 03:19:47;;;;;;;79.50;35.70;;;5.80;99.90;;;;;;5091831;28;20016;-70
2021/11/03 03:22:14;;;;;;;67.55;33.35;;;5.80;99.90;;;;;;5091958;28;20023;-71
2021/11/03 03:24:40;;;;;;;65.38;28.80;;;5.70;99.90;;;;;;5093147;28;20035;-70
2021/11/03 03:27:06;;;;;;;69.60;31.55;;;5.70;99.90;;;;;;5093178;28;20061;-70
2021/11/03 03:29:32;;;;;;;68.93;31.58;;;5.70;99.90;;;;;;5091746;28;20103;-70
2021/11/03 03:31:59;;;;;;;61.15;29.73;;;5.70;99.90;;;;;;5092734;28;20036;-71
2021/11/03 03:34:25;;;;;;;66.95;33.92;;;5.60;99.90;;;;;;5092936;28;20109;-70
2021/11/03 03:36:53;;;;;;;71.55;33.83;;;5.60;99.90;;;;;;5093101;28;20481;-70
2021/11/03 03:39:20;;;;;;;67.72;33.10;;;5.60;99.90;;;;;;5092850;28;20024;-70
2021/11/03 03:41:54;;;;;;;67.90;31.33;;;5.60;99.90;;;;;;5092965;28;20020;-70
2021/11/03 03:44:20;;;;;;;75.45;35.08;;;5.60;99.90;;;;;;5092748;28;20483;-70
2021/11/03 03:46:46;;;;;;;64.88;31.42;;;5.60;99.90;;;;;;5092844;28;20056;-71
2021/11/03 03:49:12;;;;;;;65.93;31.13;;;5.50;99.90;;;;;;5091523;28;20512;-70
2021/11/03 03:51:38;;;;;;;68.43;31.38;;;5.50;99.90;;;;;;5092921;28;20020;-71
2021/11/03 03:54:03;;;;;;;64.07;31.80;;;5.50;99.90;;;;;;5092828;28;20496;-70
2021/11/03 03:56:29;;;;;;;67.63;32.20;;;5.50;99.90;;;;;;5092724;28;20066;-71
2021/11/03 03:58:55;;;;;;;67.00;32.15;;;5.60;99.90;;;;;;5092410;28;20430;-70
2021/11/03 04:01:25;;;;;;;70.68;30.98;;;5.50;99.90;;;;;;5092781;28;20111;-70
2021/11/03 04:03:50;;;;;;;73.53;34.58;;;5.60;99.90;;;;;;5092637;28;20012;-70
2021/11/03 04:06:16;;;;;;;78.93;34.63;;;5.50;99.90;;;;;;5092671;28;20035;-71
2021/11/03 04:08:42;;;;;;;68.00;33.53;;;5.50;99.90;;;;;;5092782;28;20088;-70
2021/11/03 04:11:07;;;;;;;75.00;33.28;;;5.60;99.90;;;;;;5092729;28;20032;-70
2021/11/03 04:13:34;;;;;;;74.45;34.25;;;5.50;99.90;;;;;;5092240;28;20389;-71
2021/11/03 04:16:00;;;;;;;79.80;35.58;;;5.50;99.90;;;;;;5092611;28;20031;-70
2021/11/03 04:18:26;;;;;;;73.05;34.80;;;5.50;99.90;;;;;;5092571;28;20021;-71
2021/11/03 04:20:52;;;;;;;75.60;35.13;;;5.50;99.90;;;;;;5092396;28;20028;-70
2021/11/03 04:23:18;;;;;;;77.18;34.47;;;5.50;99.90;;;;;;5093493;28;20016;-71
2021/11/03 04:25:45;;;;;;;72.38;36.15;;;5.50;99.90;;;;;;5096443;28;20023;-70
2021/11/03 04:28:11;;;;;;;83.25;34.47;;;5.50;99.90;;;;;;5095124;28;20016;-71
2021/11/03 04:30:38;;;;;;;86.20;36.78;;;5.50;99.90;;;;;;5096322;28;20043;-70
2021/11/03 04:33:05;;;;;;;66.22;33.63;;;5.50;99.90;;;;;;5096099;28;20043;-70
2021/11/03 04:35:31;;;;;;;82.38;35.15;;;5.40;99.90;;;;;;5096240;28;20058;-70
2021/11/03 04:37:57;;;;;;;71.40;34.47;;;5.40;99.90;;;;;;5096287;28;20493;-70
2021/11/03 04:40:25;;;;;;;73.85;33.60;;;5.40;99.90;;;;;;5096232;28;20103;-70
2021/11/03 04:42:51;;;;;;;74.72;33.65;;;5.40;99.90;;;;;;5096174;28;20044;-70
2021/11/03 04:45:18;;;;;;;72.38;31.88;;;5.40;99.90;;;;;;5095592;28;20515;-70
2021/11/03 04:47:45;;;;;;;73.25;33.72;;;5.40;99.90;;;;;;5096025;28;20486;-70
2021/11/03 04:50:16;;;;;;;68.88;32.30;;;5.40;99.90;;;;;;5095709;28;20024;-70
2021/11/03 04:52:41;;;;;;;74.70;34.45;;;5.40;99.90;;;;;;5095984;28;20398;-70
2021/11/03 04:55:08;;;;;;;70.10;33.65;;;5.30;99.90;;;;;;5096155;28;20032;-70
2021/11/03 04:57:33;;;;;;;68.78;33.40;;;5.30;99.90;;;;;;5095871;28;20020;-70
2021/11/03 05:00:04;;;;;;;66.97;31.33;;;5.30;99.90;;;;;;5095786;28;20028;-70
2021/11/03 05:02:30;;;;;;;69.60;31.63;;;5.30;99.90;;;;;;5095618;28;20535;-70
2021/11/03 05:04:56;;;;;;;64.15;30.83;;;5.20;99.90;;;;;;5095740;28;20024;-70
2021/11/03 05:07:21;;;;;;;63.72;31.67;;;5.20;99.90;;;;;;5095705;28;20537;-70
2021/11/03 05:09:47;;;;;;;72.32;35.58;;;5.20;99.90;;;;;;5095685;28;20059;-70
2021/11/03 05:12:13;;;;;;;83.68;45.33;;;5.10;99.90;;;;;;5095561;28;20051;-71
2021/11/03 05:14:38;;;;;;;78.05;41.72;;;5.10;99.90;;;;;;5094281;28;20027;-70
2021/11/03 05:17:04;;;;;;;70.85;39.38;;;5.00;99.90;;;;;;5094289;28;20027;-70
2021/11/03 05:19:32;;;;;;;61.75;32.63;;;4.90;99.90;;;;;;5094037;28;20024;-69
2021/11/03 05:21:59;;;;;;;56.83;29.42;;;4.90;99.90;;;;;;5093861;28;20031;-70
2021/11/03 05:24:25;;;;;;;53.25;27.83;;;4.90;99.90;;;;;;5093655;28;20063;-70
2021/11/03 05:26:52;;;;;;;54.97;30.25;;;4.80;99.90;;;;;;5094883;28;20054;-71
2021/11/03 05:29:19;;;;;;;58.55;31.95;;;4.70;99.90;;;;;;5093938;28;20529;-69
2021/11/03 05:31:45;;;;;;;55.05;28.10;;;4.60;99.90;;;;;;5095333;28;20103;-70
2021/11/03 05:34:11;;;;;;;56.88;27.27;;;4.60;99.90;;;;;;5093349;28;20028;-70
2021/11/03 05:36:38;;;;;;;78.03;36.83;;;4.50;99.90;;;;;;5093953;28;20036;-71
2021/11/03 05:39:08;;;;;;;72.57;35.35;;;4.40;99.90;;;;;;5095090;28;20145;-70
2021/11/03 05:41:38;;;;;;;57.67;29.23;;;4.30;99.90;;;;;;5095110;28;20024;-70
2021/11/03 05:44:06;;;;;;;98.80;30.70;;;4.20;99.90;;;;;;5094822;28;20020;-70
2021/11/03 05:46:35;;;;;;;62.10;22.55;;;4.20;99.90;;;;;;5093589;28;20035;-70
2021/11/03 05:49:05;;;;;;;55.25;22.30;;;4.10;99.90;;;;;;5094981;28;20028;-69
2021/11/03 05:51:31;;;;;;;40.53;21.60;;;4.00;99.90;;;;;;5094875;28;20016;-70
2021/11/03 05:53:56;;;;;;;45.78;24.45;;;4.00;99.90;;;;;;5093945;28;20123;-69
2021/11/03 05:56:22;;;;;;;92.00;27.48;;;4.00;99.90;;;;;;5094093;28;20035;-70
2021/11/03 05:58:49;;;;;;;53.55;21.90;;;3.90;99.90;;;;;;5093622;28;20465;-71
2021/11/03 06:01:14;;;;;;;134.23;23.67;;;3.80;99.90;;;;;;5094665;28;20043;-71
2021/11/03 06:03:40;;;;;;;144.82;22.10;;;3.60;99.90;;;;;;5094344;28;20477;-71
2021/11/03 06:06:06;;;;;;;244.00;36.28;;;3.50;99.90;;;;;;5093195;28;20362;-70
2021/11/03 06:08:31;;;;;;;340.20;58.60;;;3.50;99.90;;;;;;5091090;28;20355;-70
2021/11/03 06:10:59;;;;;;;162.63;29.70;;;3.40;99.90;;;;;;5092422;28;20102;-70
2021/11/03 06:13:24;;;;;;;161.25;31.42;;;3.30;99.90;;;;;;5091527;28;20466;-69
2021/11/03 06:15:50;;;;;;;203.95;38.83;;;3.20;99.90;;;;;;5092991;28;20024;-70
2021/11/03 06:18:16;;;;;;;134.07;32.47;;;3.20;99.90;;;;;;5086670;28;20150;-70
2021/11/03 06:20:42;;;;;;;105.40;32.60;;;3.20;99.90;;;;;;5076311;28;20377;-70
2021/11/03 06:23:07;;;;;;;147.77;28.02;;;3.20;99.90;;;;;;5093375;27;20124;-70
2021/11/03 06:25:34;;;;;;;102.57;25.63;;;3.20;99.90;;;;;;5093241;28;20477;-70
2021/11/03 06:28:01;;;;;;;89.47;26.38;;;3.20;99.90;;;;;;5093810;27;20051;-70
2021/11/03 06:30:33;;;;;;;37.75;19.70;;;3.20;99.90;;;;;;5092891;28;20056;-71
2021/11/03 06:32:59;;;;;;;47.13;22.42;;;3.20;99.90;;;;;;5092977;27;20446;-70
2021/11/03 06:35:26;;;;;;;42.60;21.92;;;3.30;99.90;;;;;;5082211;28;20024;-70
2021/11/03 06:37:51;;;;;;;38.63;20.33;;;3.40;99.90;;;;;;5089251;27;20097;-69
2021/11/03 06:40:21;;;;;;;41.50;21.00;;;3.40;99.90;;;;;;5091898;28;20028;-70
2021/11/03 06:42:46;;;;;;;47.70;22.63;;;3.50;99.90;;;;;;5092954;27;20044;-71
2021/11/03 06:45:14;;;;;;;66.35;41.05;;;3.60;99.90;;;;;;5092990;28;20039;-71
2021/11/03 06:47:40;;;;;;;58.10;32.42;;;3.70;99.90;;;;;;5092802;28;20020;-71
2021/11/03 06:50:07;;;;;;;59.97;33.10;;;3.80;99.90;;;;;;5092014;28;20028;-71
2021/11/03 06:52:34;;;;;;;64.03;34.40;;;3.90;99.90;;;;;;5090587;28;20163;-71
2021/11/03 06:54:59;;;;;;;65.13;32.67;;;4.10;99.90;;;;;;5090765;28;20023;-71
2021/11/03 06:57:25;;;;;;;80.70;42.90;;;4.20;99.90;;;;;;5091946;28;20024;-71
2021/11/03 06:59:53;;;;;;;85.97;46.67;;;4.30;99.90;;;;;;5089676;28;20024;-70
2021/11/03 07:02:19;;;;;;;76.80;42.22;;;4.40;99.90;;;;;;5091010;28;20489;-70
2021/11/03 07:04:45;;;;;;;64.25;35.35;;;4.60;99.90;;;;;;5086408;28;20120;-71
2021/11/03 07:07:11;;;;;;;64.93;34.85;;;4.80;99.90;;;;;;5088539;28;20063;-71
2021/11/03 07:09:37;;;;;;;66.00;36.22;;;4.90;99.90;;;;;;5088902;28;20085;-70
2021/11/03 07:12:03;;;;;;;81.38;42.97;;;5.00;99.90;;;;;;5089130;28;20575;-71
2021/11/03 07:14:29;;;;;;;79.97;39.45;;;5.20;99.90;;;;;;5089828;28;20016;-70
2021/11/03 07:16:55;;;;;;;56.15;29.35;;;5.30;99.90;;;;;;5090272;28;20022;-71
2021/11/03 07:19:21;;;;;;;44.90;25.52;;;5.50;99.90;;;;;;5091180;28;20020;-70
2021/11/03 07:21:47;;;;;;;35.67;20.20;;;5.50;99.90;;;;;;5091458;28;20031;-71
2021/11/03 07:24:13;;;;;;;33.72;19.48;;;5.60;99.90;;;;;;5089799;28;20031;-71
2021/11/03 07:26:43;;;;;;;25.65;15.77;;;5.70;99.90;;;;;;5091387;28;20039;-71
2021/11/03 07:29:09;;;;;;;27.50;16.35;;;5.80;99.90;;;;;;5091824;28;20052;-72
2021/11/03 07:31:35;;;;;;;29.88;17.27;;;5.90;99.90;;;;;;5092899;28;20429;-72
2021/11/03 07:34:02;;;;;;;33.85;16.35;;;6.00;99.90;;;;;;5092913;28;20062;-72
2021/11/03 07:36:27;;;;;;;27.80;15.55;;;6.10;99.90;;;;;;5092823;28;20024;-71
2021/11/03 07:38:56;;;;;;;28.40;16.35;;;6.10;99.90;;;;;;5092347;28;20028;-72
2021/11/03 07:41:22;;;;;;;31.98;15.35;;;6.30;99.90;;;;;;5091803;28;20050;-72
2021/11/03 07:43:48;;;;;;;25.65;15.10;;;6.40;99.90;;;;;;5092919;28;20028;-71
2021/11/03 07:46:14;;;;;;;29.40;15.90;;;6.40;99.90;;;;;;5092921;28;20031;-71
2021/11/03 07:48:40;;;;;;;27.40;15.32;;;6.50;99.90;;;;;;5091715;28;20420;-71
2021/11/03 07:51:10;;;;;;;28.65;14.48;;;6.60;99.90;;;;;;5089631;28;20077;-71
2021/11/03 07:53:36;;;;;;;25.67;14.50;;;6.70;99.90;;;;;;5090996;28;20034;-72
2021/11/03 07:56:07;;;;;;;28.83;15.05;;;6.70;99.90;;;;;;5090958;28;20369;-71
2021/11/03 07:58:36;;;;;;;28.00;14.77;;;6.80;99.90;;;;;;5092570;28;20024;-71
2021/11/03 08:01:02;;;;;;;28.85;14.73;;;6.90;99.90;;;;;;5095524;28;20031;-71
2021/11/03 08:03:28;;;;;;;25.63;15.10;;;6.90;99.90;;;;;;5096110;28;20032;-72
2021/11/03 08:05:55;;;;;;;25.58;14.25;;;7.00;99.90;;;;;;5096858;28;20032;-72
2021/11/03 08:08:25;;;;;;;21.95;12.63;;;7.10;99.90;;;;;;5096804;28;20020;-72
2021/11/03 08:10:53;;;;;;;17.40;11.05;;;7.20;99.90;;;;;;5096948;28;20016;-71
2021/11/03 08:13:22;;;;;;;19.95;11.07;;;7.30;99.90;;;;;;5095395;28;20125;-71
2021/11/03 08:15:51;;;;;;;19.33;11.88;;;7.40;99.90;;;;;;5096639;28;20039;-71
2021/11/03 08:18:21;;;;;;;16.95;10.18;;;7.50;99.90;;;;;;5095389;28;20127;-72
2021/11/03 08:20:47;;;;;;;43.13;20.55;;;7.60;99.90;;;;;;5096625;28;20552;-71
2021/11/03 08:23:13;;;;;;;19.52;12.38;;;7.60;99.90;;;;;;5096629;28;20099;-72
2021/11/03 08:25:39;;;;;;;30.42;14.60;;;7.70;99.90;;;;;;5096462;28;20374;-72
2021/11/03 08:28:05;;;;;;;17.38;10.07;;;7.90;99.90;;;;;;5096583;28;20024;-72
2021/11/03 08:30:32;;;;;;;15.68;8.82;;;7.90;99.90;;;;;;5096300;28;20032;-71
2021/11/03 08:33:16;;;;;;;13.75;8.55;;;8.00;99.90;;;;;;5096340;28;20477;-72
2021/11/03 08:35:45;;;;;;;12.98;7.65;;;8.00;99.90;;;;;;5096383;28;20047;-72
2021/11/03 08:38:16;;;;;;;13.00;7.43;;;8.10;99.90;;;;;;5096324;28;20022;-71
2021/11/03 08:40:44;;;;;;;13.10;7.15;;;8.20;99.90;;;;;;5096236;28;20016;-72
2021/11/03 08:43:11;;;;;;;10.73;7.00;;;8.30;99.90;;;;;;5096373;28;20090;-71
2021/11/03 08:45:37;;;;;;;7.43;5.72;;;8.30;99.90;;;;;;5094855;28;20238;-71
2021/11/03 08:48:03;;;;;;;9.07;6.15;;;8.40;99.90;;;;;;5096156;28;20450;-73
2021/11/03 08:50:32;;;;;;;10.25;6.55;;;8.50;99.90;;;;;;5096007;28;20023;-71
2021/11/03 08:52:58;;;;;;;8.20;5.35;;;8.60;99.90;;;;;;5095954;28;20044;-71
2021/11/03 08:55:26;;;;;;;10.05;6.15;;;8.60;99.90;;;;;;5095849;28;20082;-71
2021/11/03 08:57:53;;;;;;;8.02;6.05;;;8.60;99.90;;;;;;5095993;28;20401;-71
2021/11/03 09:00:25;;;;;;;7.07;5.35;;;8.80;99.90;;;;;;5095794;28;20035;-71
2021/11/03 09:02:52;;;;;;;9.57;5.60;;;8.80;99.90;;;;;;5094118;28;20492;-71
2021/11/03 09:05:18;;;;;;;8.40;5.88;;;8.90;99.90;;;;;;5094499;28;20027;-72
2021/11/03 09:07:43;;;;;;;8.30;5.97;;;9.00;99.90;;;;;;5075487;28;20021;-72
2021/11/03 09:10:12;;;;;;;6.63;4.75;;;9.10;99.90;;;;;;5074197;28;20032;-72
2021/11/03 09:12:38;;;;;;;7.20;5.80;;;9.10;99.90;;;;;;5075384;28;20178;-72
2021/11/03 09:15:08;;;;;;;6.93;5.32;;;9.20;99.90;;;;;;5075311;28;20023;-71
2021/11/03 09:17:35;;;;;;;8.95;4.60;;;9.10;99.90;;;;;;5074085;28;20017;-72
2021/11/03 09:20:00;;;;;;;9.30;5.10;;;9.30;99.90;;;;;;5074037;28;20027;-71
2021/11/03 09:22:26;;;;;;;10.35;5.63;;;9.30;99.90;;;;;;5073973;28;20107;-72
2021/11/03 09:24:52;;;;;;;5.95;4.45;;;9.40;99.90;;;;;;5075205;28;20412;-72
2021/11/03 09:27:18;;;;;;;8.27;5.28;;;9.40;99.90;;;;;;5073830;28;20446;-72
2021/11/03 09:29:46;;;;;;;5.20;3.92;;;9.50;99.90;;;;;;5073760;28;20052;-72
2021/11/03 09:32:15;;;;;;;6.05;4.93;;;9.50;99.90;;;;;;5074995;28;20012;-72
2021/11/03 09:34:43;;;;;;;6.60;4.47;;;9.60;99.90;;;;;;5074982;28;20024;-72
2021/11/03 09:37:11;;;;;;;5.97;4.28;;;9.60;99.90;;;;;;5075082;28;20478;-72
2021/11/03 09:39:37;;;;;;;5.22;4.20;;;9.80;99.90;;;;;;5083321;28;20036;-72
2021/11/03 09:42:04;;;;;;;5.00;4.47;;;9.80;99.90;;;;;;5095186;28;20027;-73
2021/11/03 09:44:33;;;;;;;7.10;4.30;;;9.80;99.90;;;;;;5094978;28;20027;-71
2021/11/03 09:47:14;;;;;;;4.97;4.10;;;9.90;99.90;;;;;;5095006;28;20020;-71
2021/11/03 09:49:43;;;;;;;4.40;3.90;;;9.90;99.90;;;;;;5094899;28;20031;-72
2021/11/03 09:52:18;;;;;;;4.47;3.22;;;10.00;99.90;;;;;;5094946;28;20103;-72
2021/11/03 09:54:49;;;;;;;4.40;3.08;;;10.10;99.90;;;;;;5094878;28;20030;-71
2021/11/03 09:57:44;;;;;;;5.30;3.75;;;10.10;99.90;;;;;;5093608;28;20055;-71
2021/11/03 10:00:25;;;;;;;4.15;3.75;;;10.20;99.90;;;;;;5094847;28;20024;-72
2021/11/03 10:03:03;;;;;;;5.28;3.80;;;10.20;99.90;;;;;;5094821;28;20020;-72
2021/11/03 10:05:39;;;;;;;5.50;4.03;;;10.30;99.90;;;;;;5093346;28;20020;-72
2021/11/03 10:08:12;;;;;;;3.85;3.30;;;10.30;99.90;;;;;;5093370;28;20020;-72
2021/11/03 10:10:42;;;;;;;6.30;4.57;;;10.40;99.90;;;;;;5093424;28;20473;-71
2021/11/03 10:13:15;;;;;;;6.07;3.20;;;10.50;99.90;;;;;;5094493;28;20038;-72
2021/11/03 10:15:59;;;;;;;6.53;3.42;;;10.50;99.90;;;;;;5093121;28;20073;-72
2021/11/03 10:18:29;;;;;;;7.18;2.92;;;10.60;99.90;;;;;;5093113;28;20378;-72
2021/11/03 10:21:19;;;;;;;3.13;2.83;;;10.70;99.90;;;;;;5093715;28;20150;-72
2021/11/03 10:24:05;;;;;;;3.60;2.88;;;10.70;98.20;;;;;;5093033;28;20381;-72
2021/11/03 10:26:50;;;;;;;3.85;3.05;;;10.80;99.40;;;;;;5091741;28;20020;-72
2021/11/03 10:29:35;;;;;;;4.43;3.20;;;10.90;99.90;;;;;;5092918;28;20489;-72
2021/11/03 10:32:21;;;;;;;3.30;3.00;;;10.90;93.90;;;;;;5093797;28;20509;-72
2021/11/03 10:35:04;;;;;;;4.15;3.15;;;10.90;98.40;;;;;;5094074;28;20032;-72
2021/11/03 10:37:36;;;;;;;;;;;11.00;98.10;;;;;;5094507;28;20031;-72
2021/11/03 10:40:22;;;;;;;4.90;3.25;;;11.00;99.30;;;;;;5092690;28;20361;-72
2021/11/03 10:42:52;;;;;;;5.53;3.40;;;11.00;99.90;;;;;;5093945;28;20028;-72
2021/11/03 10:45:33;;;;;;;5.05;3.20;;;11.00;99.90;;;;;;5093804;28;20119;-72
2021/11/03 10:48:20;;;;;;;3.80;2.92;;;11.10;99.00;;;;;;5093879;28;20027;-72
2021/11/03 10:50:54;;;;;;;3.00;2.70;;;11.10;97.30;;;;;;5093814;28;20062;-72
2021/11/03 10:53:24;;;;;;;3.25;2.13;;;11.20;93.80;;;;;;5093693;28;20036;-73
2021/11/03 10:56:13;;;;;;;5.32;3.67;;;11.20;95.50;;;;;;5093651;28;20028;-72
2021/11/03 10:58:51;;;;;;;4.00;3.17;;;11.20;97.70;;;;;;5093619;28;20151;-72
2021/11/03 11:01:22;;;;;;;7.32;4.50;;;11.30;96.60;;;;;;5093609;28;20103;-73
2021/11/03 11:04:17;;;;;;;5.65;3.30;;;11.30;94.50;;;;;;5093360;28;20485;-73
2021/11/03 11:07:09;;;;;;;3.00;2.63;;;11.40;93.50;;;;;;5084650;28;20043;-72
2021/11/03 11:09:54;;;;;;;3.90;3.00;;;11.40;86.40;;;;;;5093741;28;20437;-72
2021/11/03 11:12:28;;;;;;;3.92;2.92;;;11.40;88.20;;;;;;5093438;28;20381;-72
2021/11/03 11:14:58;;;;;;;3.97;2.67;;;11.40;90.30;;;;;;5092123;28;20047;-72
2021/11/03 11:17:56;;;;;;;3.15;2.90;;;11.40;87.80;;;;;;5092102;28;20020;-72
2021/11/03 11:20:33;;;;;;;4.88;2.58;;;11.40;87.20;;;;;;5083869;28;20405;-72
2021/11/03 11:23:21;;;;;;;5.93;3.33;;;11.50;89.20;;;;;;5093310;28;20050;-72
2021/11/03 11:25:47;;;;;;;5.22;3.38;;;11.50;86.40;;;;;;5093240;28;20074;-72
2021/11/03 11:28:16;;;;;;;2.67;2.47;;;11.50;86.80;;;;;;5093299;28;20024;-74
2021/11/03 11:30:52;;;;;;;3.35;2.75;;;11.60;86.90;;;;;;5093056;28;20028;-72
2021/11/03 11:33:21;;;;;;;5.53;3.15;;;11.60;87.70;;;;;;5092165;28;20042;-72
2021/11/03 11:35:49;;;;;;;4.18;2.60;;;11.70;85.70;;;;;;5091782;28;20024;-72
2021/11/03 11:38:27;;;;;;;3.78;2.97;;;11.70;86.60;;;;;;5091801;28;20115;-72
2021/11/03 11:41:16;;;;;;;26.02;9.35;;;11.70;84.90;;;;;;5091804;28;20020;-72
2021/11/03 11:43:52;;;;;;;4.63;2.80;;;11.80;88.40;;;;;;5093063;28;20020;-72
2021/11/03 11:46:24;;;;;;;31.05;12.30;;;11.90;85.40;;;;;;5092923;28;20523;-72
2021/11/03 11:49:16;;;;;;;16.48;6.43;;;11.90;85.60;;;;;;5093035;28;20040;-72
2021/11/03 11:51:45;;;;;;;3.13;2.40;;;11.90;83.60;;;;;;5093032;28;20095;-72
2021/11/03 11:54:29;;;;;;;4.75;2.85;;;12.00;82.10;;;;;;5091612;28;20501;-73
2021/11/03 11:57:13;;;;;;;2.60;2.40;;;12.00;80.90;;;;;;5093005;28;20496;-72
2021/11/03 12:00:00;;;;;;;5.00;3.20;;;12.00;82.20;;;;;;5091528;28;20509;-72
2021/11/03 12:02:28;;;;;;;3.03;2.58;;;12.00;84.80;;;;;;5092851;28;20474;-73
2021/11/03 12:05:32;;;;;;;4.72;2.40;;;12.00;81.20;;;;;;5092815;28;20020;-72
2021/11/03 12:08:10;;;;;;;4.25;2.58;;;12.10;79.30;;;;;;5091600;28;20119;-72
2021/11/03 12:10:42;;;;;;;3.30;2.20;;;12.10;80.50;;;;;;5092583;28;20124;-73
2021/11/03 12:13:08;;;;;;;;;;;12.10;79.30;;;;;;5093168;28;20036;-72
2021/11/03 12:15:42;;;;;;;2.00;1.90;;;12.00;79.00;;;;;;5091387;28;20390;-72
2021/11/03 12:18:20;;;;;;;2.67;1.98;;;12.00;78.60;;;;;;5092821;28;20048;-74
2021/11/03 12:21:09;;;;;;;2.92;1.90;;;12.00;81.40;;;;;;5092664;28;20024;-72
2021/11/03 12:23:56;;;;;;;3.15;2.33;;;12.00;85.60;;;;;;5091402;28;20028;-72
2021/11/03 12:26:25;;;;;;;5.55;2.70;;;11.90;85.20;;;;;;5092769;28;20017;-72
2021/11/03 12:28:55;;;;;;;6.00;2.28;;;11.90;84.10;;;;;;5092614;28;20399;-73
2021/11/03 12:31:45;;;;;;;8.85;2.53;;;11.90;83.10;;;;;;5092471;28;20056;-73
2021/11/03 12:34:10;;;;;;;3.00;1.70;;;11.90;83.60;;;;;;5092302;28;20489;-72
2021/11/03 12:36:42;;;;;;;2.88;1.85;;;11.90;81.20;;;;;;5091123;28;20055;-73
2021/11/03 12:39:12;;;;;;;2.22;1.77;;;11.90;79.50;;;;;;5092590;28;20059;-72
2021/11/03 12:41:48;;;;;;;3.45;2.25;;;11.90;81.10;;;;;;5092536;28;20030;-72
2021/11/03 12:44:27;;;;;;;2.78;2.38;;;11.90;81.30;;;;;;5093257;28;20691;-72
2021/11/03 12:46:53;;;;;;;6.57;4.22;;;11.90;84.00;;;;;;5096222;28;20363;-73
2021/11/03 12:49:24;;;;;;;19.02;8.50;;;12.00;83.60;;;;;;5090516;28;20017;-72
2021/11/03 12:51:56;;;;;;;29.85;13.93;;;12.00;83.50;;;;;;5094226;27;20039;-73
2021/11/03 12:54:32;;;;;;;10.80;5.70;;;12.10;83.30;;;;;;5089304;28;20474;-72